Nellis Air Force Base
KLSV : now visible

Airfield :











YOU CAN JOIN US ON...

 
LOGIN :

Register | Disclaimer

   EN    FR    IT 

 









Legend :    VFR   Marginal VFR   IFR   Intensive IFR   Very Intensive IFR
Visi :
Ceiling :
>= 8 km
>= 3000ft
5 to 8 km
1000 to 3000 ft
1500m to 5 km
500 to 1000 ft
800 to 1500m
200 to 500 ft
< 800m
< 200 ft
Symbols :   Thunderstorms  Fog  Heavy snow  Heavy precipitations  Wind > 20 kt






- Airport Elevation : 1870 ft


KLSV - Nellis Air Force Base

CURRENT METAR :
  • 241458Z 00000KT 10SM SCT210 13/M04 A2993 RMK AO2A SLP124 T01341043 50004 $

EXPIRED METARs :
  • 241358Z 00000KT 10SM SCT220 12/M05 A2992 RMK AO2A SLP121 T01211050 $
  • 241258Z 00000KT 10SM SCT240 11/M06 A2993 RMK AO2A SLP123 T01101064 $

TAF TAF KLSV
Valid from the 24 at 15:00 until the 25 at 21:00 UTC


241500Z 2415/2521 04008KT 9999 BKN250 QNH2994INS
BECMG 2417/2418 14010KT 9999 SCT220 QNH2981INS
BECMG 2421/2422 21012G20KT 9999 SCT220 510009 QNH2982INS
BECMG 2504/2505 20009KT 9999 SCT180 QNH2974INS TX28/2423Z TN07/2514Z
KZLA FIR / North America



MET'MAP, your aeronautical weather chart ! - Copyright ORBIFLY December 2007 - Disclaimer

ORBIFLY MET'MAP TEAM :

Programming & Development : Alexandra Zaïnal
Concept & original design : Baudouin d'Aumeries
Assistance for programming : Marc-Olivier Méhu
Technical & hardware support : Manuel Goepfert

Contact : metmap@orbifly.com




SOURCES & CREDITS :

   NOAA       Earth
Advisory